KCLK/CLK METAR and TAF weather

Enter ICAO airport designator
Station Type Date Time Source
KCLK METAR 2019/05/26 23:55 UTC NOAA

KCLK 262355Z AUTO 15013KT 10SM SCT047 BKN070 OVC080 25/18 A2994 RMK AO2 LTG DSNT W


Station Type Date Time Source
KCLK Decoded METAR 2019/05/26 23:55 UTC NOAA

Clinton, Clinton Regional Airport, OK, United States (KCLK) 35-32-17N 098-55-17W
May 26, 2019 - 07:55 PM EDT / 2019.05.26 2355 UTC
Wind: from the SSE (150 degrees) at 15 MPH (13 KT):0
Visibility: 10 mile(s):0
Sky conditions: overcast
Weather: Lightning observed
Temperature: 77 F (25 C)
Dew Point: 64 F (18 C)
Relative Humidity: 65%
Pressure (altimeter): 29.94 in. Hg (1013 hPa)
ob: KCLK 262355Z AUTO 15013KT 10SM SCT047 BKN070 OVC080 25/18 A2994 RMK AO2 LTG DSNT W
cycle: 0

Station Type Date Time Source
KCLK TAF UTC NOAA

Error!

Example: see airport list